sensor_id;sensor_type;location;lat;lon;timestamp;temperature;humidity
13742;DHT22;8461;52.356;10.704;2023-08-30T00:00:17;12.80;99.90
13742;DHT22;8461;52.356;10.704;2023-08-30T00:02:44;12.90;99.90
13742;DHT22;8461;52.356;10.704;2023-08-30T00:05:10;13.00;99.90
13742;DHT22;8461;52.356;10.704;2023-08-30T00:07:36;12.90;99.90
13742;DHT22;8461;52.356;10.704;2023-08-30T00:10:02;12.80;99.90
13742;DHT22;8461;52.356;10.704;2023-08-30T00:12:29;12.90;99.90
13742;DHT22;8461;52.356;10.704;2023-08-30T00:14:55;12.60;99.90
13742;DHT22;8461;52.356;10.704;2023-08-30T00:17:20;12.70;99.90
13742;DHT22;8461;52.356;10.704;2023-08-30T00:19:46;12.70;99.90
13742;DHT22;8461;52.356;10.704;2023-08-30T00:22:13;12.70;99.90
13742;DHT22;8461;52.356;10.704;2023-08-30T00:24:39;12.60;99.90
13742;DHT22;8461;52.356;10.704;2023-08-30T00:27:04;12.80;99.90
13742;DHT22;8461;52.356;10.704;2023-08-30T00:29:30;12.90;99.90
13742;DHT22;8461;52.356;10.704;2023-08-30T00:31:56;12.90;99.90
13742;DHT22;8461;52.356;10.704;2023-08-30T00:34:21;12.50;99.90
13742;DHT22;8461;52.356;10.704;2023-08-30T00:36:47;12.40;99.90
13742;DHT22;8461;52.356;10.704;2023-08-30T00:39:13;12.30;99.90
13742;DHT22;8461;52.356;10.704;2023-08-30T00:41:39;12.20;99.90
13742;DHT22;8461;52.356;10.704;2023-08-30T00:44:05;12.40;99.90
13742;DHT22;8461;52.356;10.704;2023-08-30T00:46:31;12.60;99.90
13742;DHT22;8461;52.356;10.704;2023-08-30T00:48:58;12.60;99.90
13742;DHT22;8461;52.356;10.704;2023-08-30T00:51:25;12.30;99.90
13742;DHT22;8461;52.356;10.704;2023-08-30T00:53:50;12.20;99.90
13742;DHT22;8461;52.356;10.704;2023-08-30T00:56:16;12.30;99.90
13742;DHT22;8461;52.356;10.704;2023-08-30T00:58:42;12.30;99.90
13742;DHT22;8461;52.356;10.704;2023-08-30T01:01:08;12.20;99.90
13742;DHT22;8461;52.356;10.704;2023-08-30T01:06:03;12.00;99.90
13742;DHT22;8461;52.356;10.704;2023-08-30T01:08:28;12.10;99.90
13742;DHT22;8461;52.356;10.704;2023-08-30T01:11:03;12.20;99.90
13742;DHT22;8461;52.356;10.704;2023-08-30T01:13:33;12.20;99.90
13742;DHT22;8461;52.356;10.704;2023-08-30T01:16:00;12.20;99.90
13742;DHT22;8461;52.356;10.704;2023-08-30T01:18:27;12.30;99.90
13742;DHT22;8461;52.356;10.704;2023-08-30T01:28:49;12.00;99.90
13742;DHT22;8461;52.356;10.704;2023-08-30T01:36:12;11.60;99.90
13742;DHT22;8461;52.356;10.704;2023-08-30T01:43:33;11.30;99.90
13742;DHT22;8461;52.356;10.704;2023-08-30T01:45:59;11.30;99.90
13742;DHT22;8461;52.356;10.704;2023-08-30T01:50:54;11.10;99.90
13742;DHT22;8461;52.356;10.704;2023-08-30T01:55:51;11.10;99.90
13742;DHT22;8461;52.356;10.704;2023-08-30T02:00:43;11.40;99.90
13742;DHT22;8461;52.356;10.704;2023-08-30T02:03:13;11.60;99.90
13742;DHT22;8461;52.356;10.704;2023-08-30T02:08:44;11.50;99.90
13742;DHT22;8461;52.356;10.704;2023-08-30T02:13:42;11.20;99.90
13742;DHT22;8461;52.356;10.704;2023-08-30T02:16:09;11.40;99.90
13742;DHT22;8461;52.356;10.704;2023-08-30T02:18:36;11.30;99.90
13742;DHT22;8461;52.356;10.704;2023-08-30T02:21:02;11.30;99.90
13742;DHT22;8461;52.356;10.704;2023-08-30T02:23:28;11.30;99.90
13742;DHT22;8461;52.356;10.704;2023-08-30T02:25:54;11.40;99.90
13742;DHT22;8461;52.356;10.704;2023-08-30T02:28:20;11.30;99.90
13742;DHT22;8461;52.356;10.704;2023-08-30T02:30:46;11.50;99.90
13742;DHT22;8461;52.356;10.704;2023-08-30T02:33:11;11.70;99.90
13742;DHT22;8461;52.356;10.704;2023-08-30T02:35:37;11.50;99.90
13742;DHT22;8461;52.356;10.704;2023-08-30T02:38:02;11.30;99.90
13742;DHT22;8461;52.356;10.704;2023-08-30T02:50:17;11.30;99.90
13742;DHT22;8461;52.356;10.704;2023-08-30T02:52:45;11.20;99.90
13742;DHT22;8461;52.356;10.704;2023-08-30T03:07:25;11.70;99.90
13742;DHT22;8461;52.356;10.704;2023-08-30T03:09:53;11.60;99.90
13742;DHT22;8461;52.356;10.704;2023-08-30T03:12:19;11.50;99.90
13742;DHT22;8461;52.356;10.704;2023-08-30T03:14:45;11.40;99.90
13742;DHT22;8461;52.356;10.704;2023-08-30T03:17:11;11.10;99.90
13742;DHT22;8461;52.356;10.704;2023-08-30T03:19:36;11.20;99.90
13742;DHT22;8461;52.356;10.704;2023-08-30T03:22:02;11.00;99.90
13742;DHT22;8461;52.356;10.704;2023-08-30T03:24:27;11.00;99.90
13742;DHT22;8461;52.356;10.704;2023-08-30T03:26:53;11.00;99.90
13742;DHT22;8461;52.356;10.704;2023-08-30T03:29:19;10.90;99.90
13742;DHT22;8461;52.356;10.704;2023-08-30T03:31:44;10.70;99.90
13742;DHT22;8461;52.356;10.704;2023-08-30T03:34:10;10.80;99.90
13742;DHT22;8461;52.356;10.704;2023-08-30T03:36:37;10.90;99.90
13742;DHT22;8461;52.356;10.704;2023-08-30T03:39:03;10.90;99.90
13742;DHT22;8461;52.356;10.704;2023-08-30T03:41:29;10.90;99.90
13742;DHT22;8461;52.356;10.704;2023-08-30T03:43:54;10.90;99.90
13742;DHT22;8461;52.356;10.704;2023-08-30T03:46:20;10.70;99.90
13742;DHT22;8461;52.356;10.704;2023-08-30T03:48:45;10.70;99.90
13742;DHT22;8461;52.356;10.704;2023-08-30T03:51:11;10.60;99.90
13742;DHT22;8461;52.356;10.704;2023-08-30T03:53:37;10.60;99.90
13742;DHT22;8461;52.356;10.704;2023-08-30T03:56:02;10.60;99.90
13742;DHT22;8461;52.356;10.704;2023-08-30T03:58:29;10.70;99.90
13742;DHT22;8461;52.356;10.704;2023-08-30T04:00:56;10.70;99.90
13742;DHT22;8461;52.356;10.704;2023-08-30T04:03:21;10.40;99.90
13742;DHT22;8461;52.356;10.704;2023-08-30T04:05:47;10.40;99.90
13742;DHT22;8461;52.356;10.704;2023-08-30T04:08:12;10.50;99.90
13742;DHT22;8461;52.356;10.704;2023-08-30T04:10:40;10.60;99.90
13742;DHT22;8461;52.356;10.704;2023-08-30T04:13:06;10.60;99.90
13742;DHT22;8461;52.356;10.704;2023-08-30T04:15:37;10.60;99.90
13742;DHT22;8461;52.356;10.704;2023-08-30T04:18:04;10.60;99.90
13742;DHT22;8461;52.356;10.704;2023-08-30T04:20:30;10.50;99.90
13742;DHT22;8461;52.356;10.704;2023-08-30T04:22:56;10.50;99.90
13742;DHT22;8461;52.356;10.704;2023-08-30T04:25:22;10.50;99.90
13742;DHT22;8461;52.356;10.704;2023-08-30T04:27:48;10.50;99.90
13742;DHT22;8461;52.356;10.704;2023-08-30T04:30:14;10.40;99.90
13742;DHT22;8461;52.356;10.704;2023-08-30T04:32:40;10.40;99.90
13742;DHT22;8461;52.356;10.704;2023-08-30T04:39:58;10.00;99.90
13742;DHT22;8461;52.356;10.704;2023-08-30T04:42:24;10.10;99.90
13742;DHT22;8461;52.356;10.704;2023-08-30T04:44:50;10.20;99.90
13742;DHT22;8461;52.356;10.704;2023-08-30T04:47:16;10.30;99.90
13742;DHT22;8461;52.356;10.704;2023-08-30T04:49:42;10.30;99.90
13742;DHT22;8461;52.356;10.704;2023-08-30T04:52:08;10.30;99.90
13742;DHT22;8461;52.356;10.704;2023-08-30T04:54:33;10.30;99.90
13742;DHT22;8461;52.356;10.704;2023-08-30T04:56:59;10.40;99.90
13742;DHT22;8461;52.356;10.704;2023-08-30T04:59:24;10.50;99.90
13742;DHT22;8461;52.356;10.704;2023-08-30T05:01:50;10.50;99.90
13742;DHT22;8461;52.356;10.704;2023-08-30T05:04:17;10.40;99.90
13742;DHT22;8461;52.356;10.704;2023-08-30T05:06:42;10.30;99.90
13742;DHT22;8461;52.356;10.704;2023-08-30T05:09:08;10.40;99.90
13742;DHT22;8461;52.356;10.704;2023-08-30T05:11:34;10.30;99.90
13742;DHT22;8461;52.356;10.704;2023-08-30T05:38:30;10.60;99.90
13742;DHT22;8461;52.356;10.704;2023-08-30T05:40:55;10.70;99.90
13742;DHT22;8461;52.356;10.704;2023-08-30T05:43:21;10.80;99.90
13742;DHT22;8461;52.356;10.704;2023-08-30T05:45:47;10.80;99.90
13742;DHT22;8461;52.356;10.704;2023-08-30T05:48:13;11.00;99.90
13742;DHT22;8461;52.356;10.704;2023-08-30T05:50:38;11.30;99.90
13742;DHT22;8461;52.356;10.704;2023-08-30T05:53:04;11.60;99.90
13742;DHT22;8461;52.356;10.704;2023-08-30T05:57:57;12.00;99.90
13742;DHT22;8461;52.356;10.704;2023-08-30T06:00:22;12.30;99.90
13742;DHT22;8461;52.356;10.704;2023-08-30T06:02:48;12.40;99.90
13742;DHT22;8461;52.356;10.704;2023-08-30T06:05:16;12.60;99.90
13742;DHT22;8461;52.356;10.704;2023-08-30T06:07:42;12.60;99.90
13742;DHT22;8461;52.356;10.704;2023-08-30T06:10:07;12.60;99.90
13742;DHT22;8461;52.356;10.704;2023-08-30T06:12:33;12.60;99.90
13742;DHT22;8461;52.356;10.704;2023-08-30T06:14:59;12.70;99.90
13742;DHT22;8461;52.356;10.704;2023-08-30T06:17:24;12.80;99.90
13742;DHT22;8461;52.356;10.704;2023-08-30T06:19:50;12.90;99.90
13742;DHT22;8461;52.356;10.704;2023-08-30T06:22:15;13.10;99.90
13742;DHT22;8461;52.356;10.704;2023-08-30T06:24:41;13.20;99.90
13742;DHT22;8461;52.356;10.704;2023-08-30T06:27:06;13.40;99.90
13742;DHT22;8461;52.356;10.704;2023-08-30T06:29:32;13.50;99.90
13742;DHT22;8461;52.356;10.704;2023-08-30T06:36:51;14.00;99.90
13742;DHT22;8461;52.356;10.704;2023-08-30T06:39:17;14.20;99.90
13742;DHT22;8461;52.356;10.704;2023-08-30T06:41:43;14.40;99.90
13742;DHT22;8461;52.356;10.704;2023-08-30T06:44:08;14.50;99.90
13742;DHT22;8461;52.356;10.704;2023-08-30T06:51:27;14.90;99.90
13742;DHT22;8461;52.356;10.704;2023-08-30T06:53:53;15.10;99.90
13742;DHT22;8461;52.356;10.704;2023-08-30T06:58:47;15.20;99.90
13742;DHT22;8461;52.356;10.704;2023-08-30T07:01:13;15.40;99.90
13742;DHT22;8461;52.356;10.704;2023-08-30T07:03:38;15.40;99.90
13742;DHT22;8461;52.356;10.704;2023-08-30T07:08:33;15.60;99.90
13742;DHT22;8461;52.356;10.704;2023-08-30T07:10:59;15.80;99.90
13742;DHT22;8461;52.356;10.704;2023-08-30T07:13:25;15.90;99.90
13742;DHT22;8461;52.356;10.704;2023-08-30T07:15:51;15.80;99.90
13742;DHT22;8461;52.356;10.704;2023-08-30T07:18:16;15.90;99.90
13742;DHT22;8461;52.356;10.704;2023-08-30T07:20:42;15.90;99.90
13742;DHT22;8461;52.356;10.704;2023-08-30T07:23:08;16.00;99.90
13742;DHT22;8461;52.356;10.704;2023-08-30T07:25:35;16.40;99.90
13742;DHT22;8461;52.356;10.704;2023-08-30T07:28:02;16.10;99.90
13742;DHT22;8461;52.356;10.704;2023-08-30T07:30:28;16.20;99.90
13742;DHT22;8461;52.356;10.704;2023-08-30T07:32:54;16.20;99.90
13742;DHT22;8461;52.356;10.704;2023-08-30T07:35:20;16.30;99.90
13742;DHT22;8461;52.356;10.704;2023-08-30T07:37:45;16.40;99.90
13742;DHT22;8461;52.356;10.704;2023-08-30T07:40:11;16.30;99.90
13742;DHT22;8461;52.356;10.704;2023-08-30T07:42:37;16.40;99.90
13742;DHT22;8461;52.356;10.704;2023-08-30T07:45:03;16.40;99.90
13742;DHT22;8461;52.356;10.704;2023-08-30T07:47:29;16.50;99.90
13742;DHT22;8461;52.356;10.704;2023-08-30T07:49:55;16.40;99.90
13742;DHT22;8461;52.356;10.704;2023-08-30T07:52:21;16.50;99.90
13742;DHT22;8461;52.356;10.704;2023-08-30T07:57:13;16.50;99.90
13742;DHT22;8461;52.356;10.704;2023-08-30T07:59:38;16.70;99.90
13742;DHT22;8461;52.356;10.704;2023-08-30T08:02:05;16.90;99.90
13742;DHT22;8461;52.356;10.704;2023-08-30T08:04:33;17.00;99.90
13742;DHT22;8461;52.356;10.704;2023-08-30T08:06:58;17.00;99.90
13742;DHT22;8461;52.356;10.704;2023-08-30T08:11:51;16.90;99.90
13742;DHT22;8461;52.356;10.704;2023-08-30T08:14:16;17.00;99.90
13742;DHT22;8461;52.356;10.704;2023-08-30T08:16:42;17.10;99.90
13742;DHT22;8461;52.356;10.704;2023-08-30T08:19:07;17.10;99.90
13742;DHT22;8461;52.356;10.704;2023-08-30T08:21:34;17.10;99.90
13742;DHT22;8461;52.356;10.704;2023-08-30T08:24:00;17.10;99.90
13742;DHT22;8461;52.356;10.704;2023-08-30T08:26:26;17.00;99.90
13742;DHT22;8461;52.356;10.704;2023-08-30T08:28:51;17.00;99.90
13742;DHT22;8461;52.356;10.704;2023-08-30T08:31:17;17.10;99.90
13742;DHT22;8461;52.356;10.704;2023-08-30T08:33:43;17.30;99.90
13742;DHT22;8461;52.356;10.704;2023-08-30T08:36:09;17.20;99.90
13742;DHT22;8461;52.356;10.704;2023-08-30T08:38:35;17.20;99.90
13742;DHT22;8461;52.356;10.704;2023-08-30T08:41:05;17.30;99.90
13742;DHT22;8461;52.356;10.704;2023-08-30T08:43:32;17.40;99.90
13742;DHT22;8461;52.356;10.704;2023-08-30T08:46:00;17.50;99.90
13742;DHT22;8461;52.356;10.704;2023-08-30T08:48:28;17.40;99.90
13742;DHT22;8461;52.356;10.704;2023-08-30T08:50:55;17.50;99.90
13742;DHT22;8461;52.356;10.704;2023-08-30T08:53:22;17.60;99.90
13742;DHT22;8461;52.356;10.704;2023-08-30T08:55:48;17.60;99.90
13742;DHT22;8461;52.356;10.704;2023-08-30T08:58:15;17.70;99.90
13742;DHT22;8461;52.356;10.704;2023-08-30T09:00:42;17.80;99.90
13742;DHT22;8461;52.356;10.704;2023-08-30T09:03:08;17.90;99.90
13742;DHT22;8461;52.356;10.704;2023-08-30T09:05:37;17.80;99.90
13742;DHT22;8461;52.356;10.704;2023-08-30T09:08:04;17.90;99.90
13742;DHT22;8461;52.356;10.704;2023-08-30T09:10:31;18.00;99.90
13742;DHT22;8461;52.356;10.704;2023-08-30T09:12:58;18.10;99.90
13742;DHT22;8461;52.356;10.704;2023-08-30T09:15:33;18.00;99.90
13742;DHT22;8461;52.356;10.704;2023-08-30T09:17:59;18.10;99.90
13742;DHT22;8461;52.356;10.704;2023-08-30T09:20:25;18.00;99.90
13742;DHT22;8461;52.356;10.704;2023-08-30T09:22:51;18.00;99.90
13742;DHT22;8461;52.356;10.704;2023-08-30T09:25:24;18.10;99.90
13742;DHT22;8461;52.356;10.704;2023-08-30T09:27:50;18.40;99.90
13742;DHT22;8461;52.356;10.704;2023-08-30T09:30:22;18.50;99.90
13742;DHT22;8461;52.356;10.704;2023-08-30T09:32:47;18.80;99.90
13742;DHT22;8461;52.356;10.704;2023-08-30T09:35:13;18.80;99.90
13742;DHT22;8461;52.356;10.704;2023-08-30T09:37:38;18.70;99.90
13742;DHT22;8461;52.356;10.704;2023-08-30T09:40:05;18.70;99.90
13742;DHT22;8461;52.356;10.704;2023-08-30T09:42:31;18.80;99.90
13742;DHT22;8461;52.356;10.704;2023-08-30T09:44:56;19.00;99.90
13742;DHT22;8461;52.356;10.704;2023-08-30T09:49:54;19.00;99.90
13742;DHT22;8461;52.356;10.704;2023-08-30T09:52:23;19.30;99.90
13742;DHT22;8461;52.356;10.704;2023-08-30T09:54:49;19.20;99.90
13742;DHT22;8461;52.356;10.704;2023-08-30T09:59:43;19.20;99.90
13742;DHT22;8461;52.356;10.704;2023-08-30T10:02:09;19.20;99.90
13742;DHT22;8461;52.356;10.704;2023-08-30T10:04:38;19.30;99.90
13742;DHT22;8461;52.356;10.704;2023-08-30T10:07:06;19.50;99.90
13742;DHT22;8461;52.356;10.704;2023-08-30T10:09:33;19.50;99.90
13742;DHT22;8461;52.356;10.704;2023-08-30T10:11:58;19.80;99.90
13742;DHT22;8461;52.356;10.704;2023-08-30T10:14:26;19.80;99.90
13742;DHT22;8461;52.356;10.704;2023-08-30T10:17:00;19.90;99.90
13742;DHT22;8461;52.356;10.704;2023-08-30T10:19:27;19.90;99.90
13742;DHT22;8461;52.356;10.704;2023-08-30T10:22:01;19.90;99.90
13742;DHT22;8461;52.356;10.704;2023-08-30T10:24:35;19.80;99.90
13742;DHT22;8461;52.356;10.704;2023-08-30T10:27:04;19.80;99.90
13742;DHT22;8461;52.356;10.704;2023-08-30T10:29:33;20.10;99.90
13742;DHT22;8461;52.356;10.704;2023-08-30T10:32:05;20.10;99.90
13742;DHT22;8461;52.356;10.704;2023-08-30T10:34:35;20.30;99.90
13742;DHT22;8461;52.356;10.704;2023-08-30T10:37:03;20.50;99.90
13742;DHT22;8461;52.356;10.704;2023-08-30T10:39:39;20.40;99.90
13742;DHT22;8461;52.356;10.704;2023-08-30T10:42:13;20.50;99.90
13742;DHT22;8461;52.356;10.704;2023-08-30T10:44:49;20.60;99.90
13742;DHT22;8461;52.356;10.704;2023-08-30T10:47:19;20.60;99.90
13742;DHT22;8461;52.356;10.704;2023-08-30T10:49:47;20.70;99.90
13742;DHT22;8461;52.356;10.704;2023-08-30T10:52:13;20.70;99.90
13742;DHT22;8461;52.356;10.704;2023-08-30T10:54:39;20.80;99.90
13742;DHT22;8461;52.356;10.704;2023-08-30T10:57:04;20.90;99.90
13742;DHT22;8461;52.356;10.704;2023-08-30T10:59:30;21.00;99.90
13742;DHT22;8461;52.356;10.704;2023-08-30T11:01:56;20.90;99.90
13742;DHT22;8461;52.356;10.704;2023-08-30T11:04:22;20.90;99.90
13742;DHT22;8461;52.356;10.704;2023-08-30T11:06:49;20.70;99.90
13742;DHT22;8461;52.356;10.704;2023-08-30T11:09:16;20.70;99.90
13742;DHT22;8461;52.356;10.704;2023-08-30T11:14:15;20.30;99.90
13742;DHT22;8461;52.356;10.704;2023-08-30T11:16:41;20.50;99.90
13742;DHT22;8461;52.356;10.704;2023-08-30T11:19:08;20.70;99.90
13742;DHT22;8461;52.356;10.704;2023-08-30T11:21:37;20.70;99.90
13742;DHT22;8461;52.356;10.704;2023-08-30T11:24:06;20.70;99.90
13742;DHT22;8461;52.356;10.704;2023-08-30T11:26:32;20.70;99.90
13742;DHT22;8461;52.356;10.704;2023-08-30T11:29:04;20.70;99.90
13742;DHT22;8461;52.356;10.704;2023-08-30T11:31:30;20.60;99.90
13742;DHT22;8461;52.356;10.704;2023-08-30T11:33:56;20.70;99.90
13742;DHT22;8461;52.356;10.704;2023-08-30T11:36:25;20.70;99.90
13742;DHT22;8461;52.356;10.704;2023-08-30T11:38:51;20.80;99.90
13742;DHT22;8461;52.356;10.704;2023-08-30T11:41:17;20.80;99.90
13742;DHT22;8461;52.356;10.704;2023-08-30T11:43:45;20.50;99.90
13742;DHT22;8461;52.356;10.704;2023-08-30T11:46:10;20.40;99.90
13742;DHT22;8461;52.356;10.704;2023-08-30T11:48:40;20.50;99.90
13742;DHT22;8461;52.356;10.704;2023-08-30T11:51:07;20.40;99.90
13742;DHT22;8461;52.356;10.704;2023-08-30T11:53:34;20.40;99.90
13742;DHT22;8461;52.356;10.704;2023-08-30T11:56:00;20.60;99.90
13742;DHT22;8461;52.356;10.704;2023-08-30T11:58:25;20.60;99.90
13742;DHT22;8461;52.356;10.704;2023-08-30T12:00:52;20.90;99.90
13742;DHT22;8461;52.356;10.704;2023-08-30T12:03:19;21.00;99.90
13742;DHT22;8461;52.356;10.704;2023-08-30T12:05:48;21.20;99.90
13742;DHT22;8461;52.356;10.704;2023-08-30T12:10:44;21.00;99.90
13742;DHT22;8461;52.356;10.704;2023-08-30T12:13:20;21.20;99.90
13742;DHT22;8461;52.356;10.704;2023-08-30T12:15:46;21.00;99.90
13742;DHT22;8461;52.356;10.704;2023-08-30T12:18:11;21.30;99.90
13742;DHT22;8461;52.356;10.704;2023-08-30T12:20:37;21.50;99.90
13742;DHT22;8461;52.356;10.704;2023-08-30T12:23:02;21.70;99.90
13742;DHT22;8461;52.356;10.704;2023-08-30T12:25:28;21.70;99.90
13742;DHT22;8461;52.356;10.704;2023-08-30T12:27:56;21.70;99.90
13742;DHT22;8461;52.356;10.704;2023-08-30T12:30:21;21.50;99.90
13742;DHT22;8461;52.356;10.704;2023-08-30T12:32:47;21.40;99.90
13742;DHT22;8461;52.356;10.704;2023-08-30T12:35:13;21.50;99.90
13742;DHT22;8461;52.356;10.704;2023-08-30T12:37:39;21.20;99.90
13742;DHT22;8461;52.356;10.704;2023-08-30T12:40:05;21.00;99.90
13742;DHT22;8461;52.356;10.704;2023-08-30T12:42:31;21.00;99.90
13742;DHT22;8461;52.356;10.704;2023-08-30T12:44:57;21.30;99.90
13742;DHT22;8461;52.356;10.704;2023-08-30T12:47:23;21.00;99.90
13742;DHT22;8461;52.356;10.704;2023-08-30T12:49:48;21.00;99.90
13742;DHT22;8461;52.356;10.704;2023-08-30T12:52:14;20.90;99.90
13742;DHT22;8461;52.356;10.704;2023-08-30T12:54:40;21.00;99.90
13742;DHT22;8461;52.356;10.704;2023-08-30T12:57:05;21.00;99.90
13742;DHT22;8461;52.356;10.704;2023-08-30T12:59:31;20.90;99.90
13742;DHT22;8461;52.356;10.704;2023-08-30T13:01:57;20.90;99.90
13742;DHT22;8461;52.356;10.704;2023-08-30T13:04:22;20.90;99.90
13742;DHT22;8461;52.356;10.704;2023-08-30T13:06:48;20.90;99.90
13742;DHT22;8461;52.356;10.704;2023-08-30T13:09:13;20.90;99.90
13742;DHT22;8461;52.356;10.704;2023-08-30T13:11:39;20.80;99.90
13742;DHT22;8461;52.356;10.704;2023-08-30T13:14:04;20.70;99.90
13742;DHT22;8461;52.356;10.704;2023-08-30T13:16:30;20.70;99.90
13742;DHT22;8461;52.356;10.704;2023-08-30T13:18:55;20.60;99.90
13742;DHT22;8461;52.356;10.704;2023-08-30T13:21:21;20.60;99.90
13742;DHT22;8461;52.356;10.704;2023-08-30T13:23:46;20.50;99.90
13742;DHT22;8461;52.356;10.704;2023-08-30T13:26:12;20.70;99.90
13742;DHT22;8461;52.356;10.704;2023-08-30T13:28:37;20.50;99.90
13742;DHT22;8461;52.356;10.704;2023-08-30T13:31:06;20.40;99.90
13742;DHT22;8461;52.356;10.704;2023-08-30T13:33:31;20.50;99.90
13742;DHT22;8461;52.356;10.704;2023-08-30T13:35:57;20.60;99.90
13742;DHT22;8461;52.356;10.704;2023-08-30T13:38:22;20.70;99.90
13742;DHT22;8461;52.356;10.704;2023-08-30T13:40:48;20.60;99.90
13742;DHT22;8461;52.356;10.704;2023-08-30T13:43:14;20.70;99.90
13742;DHT22;8461;52.356;10.704;2023-08-30T13:45:39;20.80;99.90
13742;DHT22;8461;52.356;10.704;2023-08-30T13:48:05;20.70;99.90
13742;DHT22;8461;52.356;10.704;2023-08-30T13:50:30;20.70;99.90
13742;DHT22;8461;52.356;10.704;2023-08-30T13:52:58;20.60;99.90
13742;DHT22;8461;52.356;10.704;2023-08-30T13:55:23;20.60;99.90
13742;DHT22;8461;52.356;10.704;2023-08-30T13:57:49;20.60;99.90
13742;DHT22;8461;52.356;10.704;2023-08-30T14:00:15;20.60;99.90
13742;DHT22;8461;52.356;10.704;2023-08-30T14:02:40;20.50;99.90
13742;DHT22;8461;52.356;10.704;2023-08-30T14:05:06;20.40;99.90
13742;DHT22;8461;52.356;10.704;2023-08-30T14:07:32;20.40;99.90
13742;DHT22;8461;52.356;10.704;2023-08-30T14:09:58;20.40;99.90
13742;DHT22;8461;52.356;10.704;2023-08-30T14:12:24;20.50;99.90
13742;DHT22;8461;52.356;10.704;2023-08-30T14:14:49;20.60;99.90
13742;DHT22;8461;52.356;10.704;2023-08-30T14:17:15;20.70;99.90
13742;DHT22;8461;52.356;10.704;2023-08-30T14:19:40;20.80;99.90
13742;DHT22;8461;52.356;10.704;2023-08-30T14:22:06;21.00;99.90
13742;DHT22;8461;52.356;10.704;2023-08-30T14:24:32;21.10;99.90
13742;DHT22;8461;52.356;10.704;2023-08-30T14:26:59;21.10;99.90
13742;DHT22;8461;52.356;10.704;2023-08-30T14:29:25;21.10;99.90
13742;DHT22;8461;52.356;10.704;2023-08-30T14:31:51;21.00;99.90
13742;DHT22;8461;52.356;10.704;2023-08-30T14:34:16;21.00;99.90
13742;DHT22;8461;52.356;10.704;2023-08-30T14:36:42;21.00;99.90
13742;DHT22;8461;52.356;10.704;2023-08-30T14:39:08;21.10;99.90
13742;DHT22;8461;52.356;10.704;2023-08-30T14:41:35;21.20;99.90
13742;DHT22;8461;52.356;10.704;2023-08-30T14:44:02;21.40;99.90
13742;DHT22;8461;52.356;10.704;2023-08-30T14:46:30;21.50;99.90
13742;DHT22;8461;52.356;10.704;2023-08-30T14:48:56;21.60;99.90
13742;DHT22;8461;52.356;10.704;2023-08-30T14:51:21;21.50;99.90
13742;DHT22;8461;52.356;10.704;2023-08-30T14:53:47;21.60;99.90
13742;DHT22;8461;52.356;10.704;2023-08-30T14:56:13;21.60;99.90
13742;DHT22;8461;52.356;10.704;2023-08-30T14:58:38;21.50;99.90
13742;DHT22;8461;52.356;10.704;2023-08-30T15:01:04;21.50;99.90
13742;DHT22;8461;52.356;10.704;2023-08-30T15:03:30;21.50;99.90
13742;DHT22;8461;52.356;10.704;2023-08-30T15:08:24;21.10;99.90
13742;DHT22;8461;52.356;10.704;2023-08-30T15:10:50;21.20;99.90
13742;DHT22;8461;52.356;10.704;2023-08-30T15:13:19;21.10;99.90
13742;DHT22;8461;52.356;10.704;2023-08-30T15:15:45;20.90;99.90
13742;DHT22;8461;52.356;10.704;2023-08-30T15:18:11;20.70;99.90
13742;DHT22;8461;52.356;10.704;2023-08-30T15:20:37;20.50;99.90
13742;DHT22;8461;52.356;10.704;2023-08-30T15:23:02;20.30;99.90
13742;DHT22;8461;52.356;10.704;2023-08-30T15:25:28;20.10;99.90
13742;DHT22;8461;52.356;10.704;2023-08-30T15:27:53;20.00;99.90
13742;DHT22;8461;52.356;10.704;2023-08-30T15:30:19;19.90;99.90
13742;DHT22;8461;52.356;10.704;2023-08-30T15:32:45;19.70;99.90
13742;DHT22;8461;52.356;10.704;2023-08-30T15:35:10;19.60;99.90
13742;DHT22;8461;52.356;10.704;2023-08-30T15:37:36;19.40;99.90
13742;DHT22;8461;52.356;10.704;2023-08-30T15:40:04;19.40;99.90
13742;DHT22;8461;52.356;10.704;2023-08-30T15:42:34;19.20;99.90
13742;DHT22;8461;52.356;10.704;2023-08-30T15:45:01;19.10;99.90
13742;DHT22;8461;52.356;10.704;2023-08-30T15:47:28;19.10;99.90
13742;DHT22;8461;52.356;10.704;2023-08-30T15:49:54;19.00;99.90
13742;DHT22;8461;52.356;10.704;2023-08-30T15:52:19;19.00;99.90
13742;DHT22;8461;52.356;10.704;2023-08-30T15:54:45;18.90;99.90
13742;DHT22;8461;52.356;10.704;2023-08-30T15:57:10;18.80;99.90
13742;DHT22;8461;52.356;10.704;2023-08-30T15:59:36;18.80;99.90
13742;DHT22;8461;52.356;10.704;2023-08-30T16:02:01;18.70;99.90
13742;DHT22;8461;52.356;10.704;2023-08-30T16:04:27;18.80;99.90
13742;DHT22;8461;52.356;10.704;2023-08-30T16:06:52;18.80;99.90
13742;DHT22;8461;52.356;10.704;2023-08-30T16:09:18;18.70;99.90
13742;DHT22;8461;52.356;10.704;2023-08-30T16:11:44;18.70;99.90
13742;DHT22;8461;52.356;10.704;2023-08-30T16:14:10;18.60;99.90
13742;DHT22;8461;52.356;10.704;2023-08-30T16:16:35;18.50;99.90
13742;DHT22;8461;52.356;10.704;2023-08-30T16:19:01;18.50;99.90
13742;DHT22;8461;52.356;10.704;2023-08-30T16:21:27;18.40;99.90
13742;DHT22;8461;52.356;10.704;2023-08-30T16:23:52;18.40;99.90
13742;DHT22;8461;52.356;10.704;2023-08-30T16:26:18;18.40;99.90
13742;DHT22;8461;52.356;10.704;2023-08-30T16:28:43;18.40;99.90
13742;DHT22;8461;52.356;10.704;2023-08-30T16:31:11;18.40;99.90
13742;DHT22;8461;52.356;10.704;2023-08-30T16:33:37;18.40;99.90
13742;DHT22;8461;52.356;10.704;2023-08-30T16:36:03;18.30;99.90
13742;DHT22;8461;52.356;10.704;2023-08-30T16:38:29;18.50;99.90
13742;DHT22;8461;52.356;10.704;2023-08-30T16:40:55;18.30;99.90
13742;DHT22;8461;52.356;10.704;2023-08-30T16:43:28;18.40;99.90
13742;DHT22;8461;52.356;10.704;2023-08-30T16:45:53;18.40;99.90
13742;DHT22;8461;52.356;10.704;2023-08-30T16:48:19;18.40;99.90
13742;DHT22;8461;52.356;10.704;2023-08-30T16:50:44;18.40;99.90
13742;DHT22;8461;52.356;10.704;2023-08-30T16:53:10;18.20;99.90
13742;DHT22;8461;52.356;10.704;2023-08-30T16:55:35;18.30;99.90
13742;DHT22;8461;52.356;10.704;2023-08-30T16:58:01;18.30;99.90
13742;DHT22;8461;52.356;10.704;2023-08-30T17:00:27;18.10;99.90
13742;DHT22;8461;52.356;10.704;2023-08-30T17:02:52;18.00;99.90
13742;DHT22;8461;52.356;10.704;2023-08-30T17:05:19;17.90;99.90
13742;DHT22;8461;52.356;10.704;2023-08-30T17:07:44;17.90;99.90
13742;DHT22;8461;52.356;10.704;2023-08-30T17:10:10;17.90;99.90
13742;DHT22;8461;52.356;10.704;2023-08-30T17:12:36;17.90;99.90
13742;DHT22;8461;52.356;10.704;2023-08-30T17:15:03;18.00;99.90
13742;DHT22;8461;52.356;10.704;2023-08-30T17:17:28;17.80;99.90
13742;DHT22;8461;52.356;10.704;2023-08-30T17:19:54;17.80;99.90
13742;DHT22;8461;52.356;10.704;2023-08-30T17:22:19;17.90;99.90